ADDS METAR Data INFO
IDs: Format: Raw Decoded Include TAF

Data at: 0752 UTC 17 Oct 2017

KORH 170654Z AUTO 30008KT 10SM CLR 02/M01 A3018 RMK AO2 SLP226 T00221011
KORH 170554Z AUTO 32008KT 10SM CLR 03/M02 A3017 RMK AO2 SLP222 T00331017 10072 20033 53005
KORH 170454Z AUTO 33007KT 10SM CLR 04/M02 A3016 RMK AO2 SLP219 T00391017 401780039
KORH 170354Z AUTO 33006KT 10SM CLR 04/M01 A3015 RMK AO2 SLP218 T00391011
KORH 170254Z AUTO 33007KT 10SM CLR 04/M01 A3015 RMK AO2 SLP216 T00441006 51026
KORH 170154Z AUTO 36010KT 10SM CLR 06/00 A3013 RMK AO2 SLP209 T00560000
KORH 170054Z 32007KT 10SM CLR 07/01 A3010 RMK AO2 SLP197 T00670006
KORH 162354Z 32008KT 10SM CLR 07/01 A3007 RMK AO2 SLP187 T00720006 10100 20072 53019
KORH 162254Z 33007KT 10SM CLR 08/01 A3005 RMK AO2 SLP179 T00780006
KORH 162154Z 33012KT 10SM CLR 08/01 A3002 RMK AO2 SLP170 T00830011
KORH 162054Z 32012KT 10SM CLR 09/01 A3001 RMK AO2 SLP166 T00890011 53017
KORH 161954Z 32011KT 10SM CLR 09/02 A2998 RMK AO2 SLP154 T00940017
KORH 161854Z 32009KT 10SM CLR 09/02 A2996 RMK AO2 SLP149 T00940022
KORH 161754Z 31010KT 10SM FEW027 10/03 A2996 RMK AO2 SLP147 T01000028 10117 20100 58001
KORH 161654Z 32011KT 10SM FEW026 11/03 A2996 RMK AO2 SLP148 T01060028
KORH 161649Z 33010KT 10SM BKN026 11/03 A2997 RMK AO2
KORH 161642Z 33008KT 10SM SCT026 11/03 A2995 RMK AO2 T01060033
KORH 161554Z 31013KT 10SM OVC025 11/04 A2996 RMK AO2 SLP147 T01060044
KORH 161536Z 32012KT 10SM BKN026 11/04 A2995 RMK AO2 T01060039
KORH 161508Z 31011KT 10SM SCT024 11/04 A2995 RMK AO2 T01110044
KORH 161454Z 29007KT 10SM BKN025 11/05 A2995 RMK AO2 SLP142 T01060050 51030
KORH 161354Z 32013G20KT 10SM OVC024 11/05 A2992 RMK AO2 SLP131 T01110050
KORH 161320Z 30011G18KT 10SM BKN026 12/06 A2990 RMK AO2 T01170061
KORH 161254Z 29013KT 10SM FEW028 12/06 A2991 RMK AO2 SLP128 T01170061
KORH 161154Z 30013KT 10SM FEW100 FEW120 12/06 A2986 RMK AO2 SLP110 60000 70004 T01170061 10161 20117 51020
KORH 161054Z 29012G19KT 10SM FEW120 12/07 A2984 RMK AO2 SLP105 T01170067
KORH 160954Z AUTO 28012G22KT 10SM OVC110 12/08 A2982 RMK AO2 PK WND 30030/0922 SLP097 T01220078
KORH 160854Z AUTO 28016G19KT 10SM OVC100 14/11 A2980 RMK AO2 SLP088 60000 T01390106 53006
KORH 160754Z AUTO 27011KT 10SM BKN037 OVC100 14/12 A2977 RMK AO2 SLP079 T01440122
KORH 160654Z AUTO 25011KT 10SM SCT027 SCT033 OVC100 14/13 A2977 RMK AO2 RAE18 SLP077 P0000 T01440128
KORH 160624Z AUTO 26009KT 10SM BKN027 BKN039 OVC080 15/13 A2977 RMK AO2 RAE18 P0000 T01500133
KORH 160609Z AUTO 26012KT 9SM -RA FEW008 BKN065 OVC080 15/13 A2978 RMK AO2 P0000 T01500133
KORH 160554Z AUTO 27012G22KT 10SM -RA SCT008 BKN028 OVC070 16/14 A2978 RMK AO2 SLP081 P0004 60004 T01610139 10189 20161 51013
KORH 160543Z AUTO 27014KT 8SM -RA BKN008 BKN014 OVC028 17/15 A2978 RMK AO2 CIG 006V011 P0003 T01670150
KORH 160530Z AUTO 26013KT 5SM -RA BR BKN012 OVC017 17/16 A2977 RMK AO2 P0003 T01720156
KORH 160454Z AUTO 24016G25KT 6SM RA OVC016 18/15 A2976 RMK AO2 RAB50 SLP077 P0000 T01780150 402110128
KORH 160354Z AUTO 23018G24KT 10SM OVC015 18/15 A2975 RMK AO2 PK WND 21032/0256 SLP073 T01830150
KORH 160305Z AUTO 23019G32KT 10SM BKN015 18/15 A2975 RMK AO2 PK WND 21032/0256 T01830150
KORH 160254Z AUTO 22019G27KT 10SM BKN014 18/15 A2974 RMK AO2 PK WND 22031/0217 SLP068 T01830150 56007
KORH 160215Z AUTO 22014G25KT 10SM OVC014 18/15 A2975 RMK AO2 PK WND 21026/0205 T01830150
KORH 160154Z AUTO 22016G25KT 10SM OVC016 18/15 A2975 RMK AO2 PK WND 21027/0057 SLP071 T01830150
KORH 160134Z AUTO 22015G26KT 10SM BKN016 18/15 A2975 RMK AO2 PK WND 21027/0057 T01830150
KORH 160121Z AUTO 23018G26KT 10SM SCT014 18/15 A2975 RMK AO2 PK WND 21027/0057 T01830150
KORH 160054Z 21016G26KT 10SM OVC014 18/15 A2975 RMK AO2 PK WND 22028/0030 SLP072 T01830150
KORH 152354Z COR 24019G28KT 10SM OVC014 19/15 A2976 RMK AO2 PK WND 21028/2350 SLP076 T01890150 10211 20183 58016
KORH 152302Z 22016G26KT 10SM OVC014 19/15 A2978 RMK AO2 PK WND 23026/2300 T01890150
KORH 152254Z 24016G22KT 10SM OVC015 18/15 A2978 RMK AO2 SLP082 T01830150
KORH 152154Z 21017G21KT 10SM BKN017 19/15 A2979 RMK AO2 SLP088 T01890150
KORH 152136Z 21014G24KT 10SM SCT017 19/15 A2980 RMK AO2 T01940150
KORH 152128Z 20018G23KT 10SM BKN017 19/15 A2980 RMK AO2 T01940150
KORH 152054Z 20017G23KT 10SM FEW019 20/16 A2981 RMK AO2 SLP092 T02000156 58032
KORH 152041Z 21014G24KT 10SM SCT019 20/16 A2982 RMK AO2 T02000156
KORH 151954Z COR 24017G25KT 10SM BKN020 21/15 A2984 RMK AO2 SLP103 T02060150